sensor_id;sensor_type;location;lat;lon;timestamp;pressure;altitude;pressure_sealevel;temperature;humidity
7990;BME280;4040;42.848;23.034;2023-02-28T00:00:58;95351.69;;;4.11;100.00
7990;BME280;4040;42.848;23.034;2023-02-28T00:06:47;95363.69;;;4.02;100.00
7990;BME280;4040;42.848;23.034;2023-02-28T00:12:36;95366.28;;;3.83;100.00
7990;BME280;4040;42.848;23.034;2023-02-28T00:18:27;95368.31;;;3.74;100.00
7990;BME280;4040;42.848;23.034;2023-02-28T00:24:16;95373.56;;;3.70;100.00
7990;BME280;4040;42.848;23.034;2023-02-28T00:30:08;95378.09;;;3.70;100.00
7990;BME280;4040;42.848;23.034;2023-02-28T00:36:04;95388.75;;;3.70;100.00
7990;BME280;4040;42.848;23.034;2023-02-28T00:41:53;95385.50;;;3.61;100.00
7990;BME280;4040;42.848;23.034;2023-02-28T00:47:41;95385.84;;;3.75;100.00
7990;BME280;4040;42.848;23.034;2023-02-28T00:53:32;95380.19;;;3.76;100.00
7990;BME280;4040;42.848;23.034;2023-02-28T00:59:21;95376.75;;;3.76;100.00
7990;BME280;4040;42.848;23.034;2023-02-28T01:09:13;95387.81;;;3.62;100.00
7990;BME280;4040;42.848;23.034;2023-02-28T01:15:03;95376.50;;;3.65;100.00
7990;BME280;4040;42.848;23.034;2023-02-28T01:20:52;95378.78;;;3.67;100.00
7990;BME280;4040;42.848;23.034;2023-02-28T01:26:42;95371.69;;;3.86;100.00
7990;BME280;4040;42.848;23.034;2023-02-28T01:32:31;95372.09;;;4.04;100.00
7990;BME280;4040;42.848;23.034;2023-02-28T01:38:20;95376.72;;;4.07;100.00
7990;BME280;4040;42.848;23.034;2023-02-28T01:50:30;95363.13;;;4.12;100.00
7990;BME280;4040;42.848;23.034;2023-02-28T01:56:24;95371.22;;;4.00;100.00
7990;BME280;4040;42.848;23.034;2023-02-28T02:02:16;95378.09;;;4.01;100.00
7990;BME280;4040;42.848;23.034;2023-02-28T02:18:52;95366.00;;;4.38;100.00
7990;BME280;4040;42.848;23.034;2023-02-28T02:24:59;95379.38;;;4.57;100.00
7990;BME280;4040;42.848;23.034;2023-02-28T02:31:08;95371.66;;;4.71;100.00
7990;BME280;4040;42.848;23.034;2023-02-28T02:37:12;95364.53;;;4.75;100.00
7990;BME280;4040;42.848;23.034;2023-02-28T02:43:07;95360.28;;;4.92;100.00
7990;BME280;4040;42.848;23.034;2023-02-28T02:49:03;95372.09;;;5.10;100.00
7990;BME280;4040;42.848;23.034;2023-02-28T02:54:56;95374.47;;;5.15;100.00
7990;BME280;4040;42.848;23.034;2023-02-28T03:00:50;95363.19;;;5.03;100.00
7990;BME280;4040;42.848;23.034;2023-02-28T03:06:41;95379.53;;;5.20;100.00
7990;BME280;4040;42.848;23.034;2023-02-28T03:12:58;95382.47;;;5.34;100.00
7990;BME280;4040;42.848;23.034;2023-02-28T03:18:54;95388.50;;;5.31;100.00
7990;BME280;4040;42.848;23.034;2023-02-28T03:24:52;95397.06;;;5.40;100.00
7990;BME280;4040;42.848;23.034;2023-02-28T03:30:49;95383.25;;;5.35;100.00
7990;BME280;4040;42.848;23.034;2023-02-28T03:36:44;95408.88;;;5.58;100.00
7990;BME280;4040;42.848;23.034;2023-02-28T03:42:36;95418.84;;;5.61;100.00
7990;BME280;4040;42.848;23.034;2023-02-28T03:48:33;95414.31;;;5.65;100.00
7990;BME280;4040;42.848;23.034;2023-02-28T03:54:26;95418.47;;;5.82;100.00
7990;BME280;4040;42.848;23.034;2023-02-28T04:00:20;95426.47;;;5.82;100.00
7990;BME280;4040;42.848;23.034;2023-02-28T04:06:16;95436.22;;;5.93;100.00
7990;BME280;4040;42.848;23.034;2023-02-28T04:12:06;95432.28;;;5.87;100.00
7990;BME280;4040;42.848;23.034;2023-02-28T04:17:54;95443.13;;;5.94;100.00
7990;BME280;4040;42.848;23.034;2023-02-28T04:23:45;95459.16;;;5.94;100.00
7990;BME280;4040;42.848;23.034;2023-02-28T04:29:33;95451.69;;;6.03;100.00
7990;BME280;4040;42.848;23.034;2023-02-28T04:35:22;95448.81;;;6.15;100.00
7990;BME280;4040;42.848;23.034;2023-02-28T04:41:13;95438.19;;;6.19;100.00
7990;BME280;4040;42.848;23.034;2023-02-28T04:47:01;95446.56;;;6.17;100.00
7990;BME280;4040;42.848;23.034;2023-02-28T04:52:50;95422.88;;;6.16;100.00
7990;BME280;4040;42.848;23.034;2023-02-28T04:58:40;95449.03;;;6.29;100.00
7990;BME280;4040;42.848;23.034;2023-02-28T05:04:30;95449.84;;;6.30;100.00
7990;BME280;4040;42.848;23.034;2023-02-28T05:14:24;95472.22;;;6.44;100.00
7990;BME280;4040;42.848;23.034;2023-02-28T05:20:13;95476.03;;;6.43;100.00
7990;BME280;4040;42.848;23.034;2023-02-28T05:26:01;95473.13;;;6.29;100.00
7990;BME280;4040;42.848;23.034;2023-02-28T05:31:51;95455.78;;;6.20;100.00
7990;BME280;4040;42.848;23.034;2023-02-28T05:37:40;95483.63;;;6.41;100.00
7990;BME280;4040;42.848;23.034;2023-02-28T05:43:29;95479.78;;;6.39;100.00
7990;BME280;4040;42.848;23.034;2023-02-28T05:49:19;95470.16;;;6.12;100.00
7990;BME280;4040;42.848;23.034;2023-02-28T05:55:09;95482.81;;;6.37;100.00
7990;BME280;4040;42.848;23.034;2023-02-28T06:00:58;95496.84;;;6.53;100.00
7990;BME280;4040;42.848;23.034;2023-02-28T06:06:49;95497.19;;;6.74;100.00
7990;BME280;4040;42.848;23.034;2023-02-28T06:16:50;95505.81;;;6.90;100.00
7990;BME280;4040;42.848;23.034;2023-02-28T06:22:40;95513.63;;;7.02;100.00
7990;BME280;4040;42.848;23.034;2023-02-28T06:28:30;95517.66;;;7.15;100.00
7990;BME280;4040;42.848;23.034;2023-02-28T06:34:19;95527.53;;;7.11;100.00
7990;BME280;4040;42.848;23.034;2023-02-28T06:40:10;95534.13;;;6.91;100.00
7990;BME280;4040;42.848;23.034;2023-02-28T06:46:02;95531.53;;;6.72;100.00
7990;BME280;4040;42.848;23.034;2023-02-28T06:51:51;95506.94;;;6.63;100.00
7990;BME280;4040;42.848;23.034;2023-02-28T06:57:41;95529.28;;;6.74;100.00
7990;BME280;4040;42.848;23.034;2023-02-28T07:03:30;95537.06;;;6.83;100.00
7990;BME280;4040;42.848;23.034;2023-02-28T07:09:18;95537.44;;;7.07;100.00
7990;BME280;4040;42.848;23.034;2023-02-28T07:19:30;95542.66;;;7.52;100.00
7990;BME280;4040;42.848;23.034;2023-02-28T07:25:19;95455.34;;;6.92;100.00
7990;BME280;4040;42.848;23.034;2023-02-28T07:31:09;95535.47;;;7.30;100.00
7990;BME280;4040;42.848;23.034;2023-02-28T07:36:59;95531.94;;;7.52;100.00
7990;BME280;4040;42.848;23.034;2023-02-28T07:42:51;95542.59;;;7.78;100.00
7990;BME280;4040;42.848;23.034;2023-02-28T07:48:40;95535.56;;;7.99;100.00
7990;BME280;4040;42.848;23.034;2023-02-28T07:54:30;95530.97;;;8.00;100.00
7990;BME280;4040;42.848;23.034;2023-02-28T08:00:19;95544.84;;;8.05;100.00
7990;BME280;4040;42.848;23.034;2023-02-28T08:06:16;95535.50;;;7.96;100.00
7990;BME280;4040;42.848;23.034;2023-02-28T08:12:07;95537.94;;;8.08;100.00
7990;BME280;4040;42.848;23.034;2023-02-28T08:22:18;95532.03;;;8.25;100.00
7990;BME280;4040;42.848;23.034;2023-02-28T08:28:08;95554.56;;;8.57;100.00
7990;BME280;4040;42.848;23.034;2023-02-28T08:33:57;95547.44;;;8.75;100.00
7990;BME280;4040;42.848;23.034;2023-02-28T08:39:46;95542.41;;;8.70;100.00
7990;BME280;4040;42.848;23.034;2023-02-28T08:45:36;95540.25;;;8.86;100.00
7990;BME280;4040;42.848;23.034;2023-02-28T08:51:26;95545.84;;;9.17;100.00
7990;BME280;4040;42.848;23.034;2023-02-28T08:57:15;95545.00;;;9.03;100.00
7990;BME280;4040;42.848;23.034;2023-02-28T09:03:05;95534.28;;;9.10;100.00
7990;BME280;4040;42.848;23.034;2023-02-28T09:08:56;95548.34;;;9.47;100.00
7990;BME280;4040;42.848;23.034;2023-02-28T09:14:46;95540.63;;;9.42;100.00
7990;BME280;4040;42.848;23.034;2023-02-28T09:24:58;95536.66;;;9.22;100.00
7990;BME280;4040;42.848;23.034;2023-02-28T09:30:49;95526.88;;;9.57;100.00
7990;BME280;4040;42.848;23.034;2023-02-28T09:36:38;95506.63;;;9.81;100.00
7990;BME280;4040;42.848;23.034;2023-02-28T09:42:31;95488.72;;;10.33;100.00
7990;BME280;4040;42.848;23.034;2023-02-28T09:48:24;95518.72;;;11.30;100.00
7990;BME280;4040;42.848;23.034;2023-02-28T09:54:16;95526.00;;;11.57;100.00
7990;BME280;4040;42.848;23.034;2023-02-28T10:00:13;95533.34;;;11.39;100.00
7990;BME280;4040;42.848;23.034;2023-02-28T10:06:10;95521.78;;;11.63;100.00
7990;BME280;4040;42.848;23.034;2023-02-28T10:12:04;95515.31;;;12.22;100.00
7990;BME280;4040;42.848;23.034;2023-02-28T10:17:58;95517.75;;;11.99;100.00
7990;BME280;4040;42.848;23.034;2023-02-28T10:28:11;95497.34;;;11.98;100.00
7990;BME280;4040;42.848;23.034;2023-02-28T10:34:02;95495.88;;;11.80;100.00
7990;BME280;4040;42.848;23.034;2023-02-28T10:39:53;95481.34;;;12.28;100.00
7990;BME280;4040;42.848;23.034;2023-02-28T10:45:54;95468.44;;;12.53;100.00
7990;BME280;4040;42.848;23.034;2023-02-28T10:51:45;95461.63;;;12.38;100.00
7990;BME280;4040;42.848;23.034;2023-02-28T10:57:56;95446.03;;;11.98;100.00
7990;BME280;4040;42.848;23.034;2023-02-28T11:03:44;95443.44;;;11.77;100.00
7990;BME280;4040;42.848;23.034;2023-02-28T11:09:37;95436.16;;;11.74;100.00
7990;BME280;4040;42.848;23.034;2023-02-28T11:15:28;95424.34;;;12.12;100.00
7990;BME280;4040;42.848;23.034;2023-02-28T11:21:21;95423.88;;;12.75;100.00
7990;BME280;4040;42.848;23.034;2023-02-28T11:27:43;95418.63;;;13.38;100.00
7990;BME280;4040;42.848;23.034;2023-02-28T11:33:41;95414.66;;;15.24;100.00
7990;BME280;4040;42.848;23.034;2023-02-28T11:39:32;95408.44;;;13.49;100.00
7990;BME280;4040;42.848;23.034;2023-02-28T11:45:40;95407.66;;;12.75;100.00
7990;BME280;4040;42.848;23.034;2023-02-28T11:51:34;95400.84;;;13.04;100.00
7990;BME280;4040;42.848;23.034;2023-02-28T11:57:33;95401.28;;;12.99;100.00
7990;BME280;4040;42.848;23.034;2023-02-28T12:03:35;95400.63;;;12.84;100.00
7990;BME280;4040;42.848;23.034;2023-02-28T12:09:47;95407.91;;;12.91;100.00
7990;BME280;4040;42.848;23.034;2023-02-28T12:16:00;95403.91;;;12.62;100.00
7990;BME280;4040;42.848;23.034;2023-02-28T12:22:18;95386.34;;;12.40;100.00
7990;BME280;4040;42.848;23.034;2023-02-28T12:28:12;95391.88;;;12.26;100.00
7990;BME280;4040;42.848;23.034;2023-02-28T12:34:06;95389.16;;;12.70;100.00
7990;BME280;4040;42.848;23.034;2023-02-28T12:40:02;95381.19;;;13.00;100.00
7990;BME280;4040;42.848;23.034;2023-02-28T12:45:56;95381.13;;;12.63;100.00
7990;BME280;4040;42.848;23.034;2023-02-28T12:51:45;95362.63;;;12.14;100.00
7990;BME280;4040;42.848;23.034;2023-02-28T12:57:40;95376.81;;;12.25;100.00
7990;BME280;4040;42.848;23.034;2023-02-28T13:03:45;95360.06;;;12.44;100.00
7990;BME280;4040;42.848;23.034;2023-02-28T13:09:40;95364.41;;;12.75;100.00
7990;BME280;4040;42.848;23.034;2023-02-28T13:15:30;95362.16;;;12.70;100.00
7990;BME280;4040;42.848;23.034;2023-02-28T13:21:24;95354.44;;;12.68;100.00
7990;BME280;4040;42.848;23.034;2023-02-28T13:38:24;95315.38;;;12.36;100.00
7990;BME280;4040;42.848;23.034;2023-02-28T13:44:15;95337.66;;;12.47;100.00
7990;BME280;4040;42.848;23.034;2023-02-28T13:50:21;95346.00;;;12.19;100.00
7990;BME280;4040;42.848;23.034;2023-02-28T13:56:24;95340.22;;;12.17;100.00
7990;BME280;4040;42.848;23.034;2023-02-28T14:02:38;95323.88;;;12.35;100.00
7990;BME280;4040;42.848;23.034;2023-02-28T14:08:33;95314.28;;;12.27;100.00
7990;BME280;4040;42.848;23.034;2023-02-28T14:14:55;95319.22;;;11.91;100.00
7990;BME280;4040;42.848;23.034;2023-02-28T14:20:47;95328.28;;;11.60;100.00
7990;BME280;4040;42.848;23.034;2023-02-28T14:26:50;95329.97;;;11.33;100.00
7990;BME280;4040;42.848;23.034;2023-02-28T14:32:54;95317.75;;;11.04;100.00
7990;BME280;4040;42.848;23.034;2023-02-28T14:38:49;95317.03;;;10.93;100.00
7990;BME280;4040;42.848;23.034;2023-02-28T14:44:40;95337.81;;;10.96;100.00
7990;BME280;4040;42.848;23.034;2023-02-28T14:50:31;95334.38;;;10.85;100.00
7990;BME280;4040;42.848;23.034;2023-02-28T14:56:24;95332.50;;;10.68;100.00
7990;BME280;4040;42.848;23.034;2023-02-28T15:02:19;95329.84;;;10.61;100.00
7990;BME280;4040;42.848;23.034;2023-02-28T15:08:14;95331.00;;;10.46;100.00
7990;BME280;4040;42.848;23.034;2023-02-28T15:14:04;95338.69;;;10.44;100.00
7990;BME280;4040;42.848;23.034;2023-02-28T15:19:53;95334.47;;;10.40;100.00
7990;BME280;4040;42.848;23.034;2023-02-28T15:25:44;95347.19;;;10.39;100.00
7990;BME280;4040;42.848;23.034;2023-02-28T15:31:34;95355.59;;;9.93;100.00
7990;BME280;4040;42.848;23.034;2023-02-28T15:37:38;95351.31;;;9.53;100.00
7990;BME280;4040;42.848;23.034;2023-02-28T15:43:31;95358.53;;;9.32;100.00
7990;BME280;4040;42.848;23.034;2023-02-28T15:49:21;95366.16;;;9.09;100.00
7990;BME280;4040;42.848;23.034;2023-02-28T15:55:16;95389.91;;;9.03;100.00
7990;BME280;4040;42.848;23.034;2023-02-28T16:01:18;95389.06;;;8.82;100.00
7990;BME280;4040;42.848;23.034;2023-02-28T16:07:12;95391.63;;;8.68;100.00
7990;BME280;4040;42.848;23.034;2023-02-28T16:13:02;95395.09;;;8.68;100.00
7990;BME280;4040;42.848;23.034;2023-02-28T16:18:52;95408.09;;;8.59;100.00
7990;BME280;4040;42.848;23.034;2023-02-28T16:24:42;95414.22;;;8.56;100.00
7990;BME280;4040;42.848;23.034;2023-02-28T16:34:53;95430.66;;;8.51;100.00
7990;BME280;4040;42.848;23.034;2023-02-28T16:40:42;95439.25;;;8.24;100.00
7990;BME280;4040;42.848;23.034;2023-02-28T16:46:33;95438.56;;;8.34;100.00
7990;BME280;4040;42.848;23.034;2023-02-28T16:52:24;95441.53;;;8.22;100.00
7990;BME280;4040;42.848;23.034;2023-02-28T16:58:15;95447.69;;;8.26;100.00
7990;BME280;4040;42.848;23.034;2023-02-28T17:04:04;95452.91;;;8.12;100.00
7990;BME280;4040;42.848;23.034;2023-02-28T17:09:54;95451.31;;;8.04;100.00
7990;BME280;4040;42.848;23.034;2023-02-28T17:15:44;95451.31;;;8.04;100.00
7990;BME280;4040;42.848;23.034;2023-02-28T17:21:34;95452.13;;;8.11;100.00
7990;BME280;4040;42.848;23.034;2023-02-28T17:27:25;95436.84;;;8.15;100.00
7990;BME280;4040;42.848;23.034;2023-02-28T17:37:35;95450.25;;;8.12;100.00
7990;BME280;4040;42.848;23.034;2023-02-28T17:43:26;95447.66;;;8.19;100.00
7990;BME280;4040;42.848;23.034;2023-02-28T17:49:16;95439.13;;;8.10;100.00
7990;BME280;4040;42.848;23.034;2023-02-28T17:55:05;95423.22;;;7.91;100.00
7990;BME280;4040;42.848;23.034;2023-02-28T18:00:56;95439.78;;;8.00;100.00
7990;BME280;4040;42.848;23.034;2023-02-28T18:06:45;95440.50;;;7.97;100.00
7990;BME280;4040;42.848;23.034;2023-02-28T18:12:36;95420.06;;;7.82;100.00
7990;BME280;4040;42.848;23.034;2023-02-28T18:18:26;95443.44;;;7.85;100.00
7990;BME280;4040;42.848;23.034;2023-02-28T18:24:16;95439.63;;;7.86;100.00
7990;BME280;4040;42.848;23.034;2023-02-28T18:30:05;95451.75;;;7.73;100.00
7990;BME280;4040;42.848;23.034;2023-02-28T18:40:17;95450.69;;;7.81;100.00
7990;BME280;4040;42.848;23.034;2023-02-28T18:46:08;95457.03;;;7.66;100.00
7990;BME280;4040;42.848;23.034;2023-02-28T18:51:57;95457.38;;;7.61;100.00
7990;BME280;4040;42.848;23.034;2023-02-28T18:57:47;95460.09;;;7.64;100.00
7990;BME280;4040;42.848;23.034;2023-02-28T19:03:36;95447.75;;;7.56;100.00
7990;BME280;4040;42.848;23.034;2023-02-28T19:09:24;95465.41;;;7.61;100.00
7990;BME280;4040;42.848;23.034;2023-02-28T19:15:15;95440.06;;;7.55;100.00
7990;BME280;4040;42.848;23.034;2023-02-28T19:21:05;95465.50;;;7.68;100.00
7990;BME280;4040;42.848;23.034;2023-02-28T19:26:54;95474.75;;;7.74;100.00
7990;BME280;4040;42.848;23.034;2023-02-28T19:32:45;95467.16;;;7.79;100.00
7990;BME280;4040;42.848;23.034;2023-02-28T19:42:55;95473.59;;;7.75;100.00
7990;BME280;4040;42.848;23.034;2023-02-28T19:48:45;95480.94;;;7.78;100.00
7990;BME280;4040;42.848;23.034;2023-02-28T19:54:35;95481.25;;;7.73;100.00
7990;BME280;4040;42.848;23.034;2023-02-28T20:00:24;95474.25;;;7.65;100.00
7990;BME280;4040;42.848;23.034;2023-02-28T20:06:14;95463.53;;;7.61;100.00
7990;BME280;4040;42.848;23.034;2023-02-28T20:12:03;95465.38;;;7.57;100.00
7990;BME280;4040;42.848;23.034;2023-02-28T20:17:52;95466.41;;;7.49;100.00
7990;BME280;4040;42.848;23.034;2023-02-28T20:23:45;95476.44;;;7.56;100.00
7990;BME280;4040;42.848;23.034;2023-02-28T20:29:34;95481.81;;;7.56;100.00
7990;BME280;4040;42.848;23.034;2023-02-28T20:35:23;95486.06;;;7.57;100.00
7990;BME280;4040;42.848;23.034;2023-02-28T20:45:35;95490.78;;;7.67;100.00
7990;BME280;4040;42.848;23.034;2023-02-28T20:51:23;95492.31;;;7.68;100.00
7990;BME280;4040;42.848;23.034;2023-02-28T20:57:12;95488.00;;;7.60;100.00
7990;BME280;4040;42.848;23.034;2023-02-28T21:03:03;95495.09;;;7.45;100.00
7990;BME280;4040;42.848;23.034;2023-02-28T21:08:51;95476.69;;;7.44;100.00
7990;BME280;4040;42.848;23.034;2023-02-28T21:14:40;95487.84;;;7.46;100.00
7990;BME280;4040;42.848;23.034;2023-02-28T21:20:30;95477.31;;;7.34;100.00
7990;BME280;4040;42.848;23.034;2023-02-28T21:26:21;95485.88;;;7.43;100.00
7990;BME280;4040;42.848;23.034;2023-02-28T21:32:09;95483.81;;;7.33;100.00
7990;BME280;4040;42.848;23.034;2023-02-28T21:38:00;95473.06;;;7.30;100.00
7990;BME280;4040;42.848;23.034;2023-02-28T21:48:10;95460.34;;;7.23;100.00
7990;BME280;4040;42.848;23.034;2023-02-28T21:54:00;95457.94;;;7.15;100.00
7990;BME280;4040;42.848;23.034;2023-02-28T21:59:49;95454.03;;;7.09;100.00
7990;BME280;4040;42.848;23.034;2023-02-28T22:05:39;95471.81;;;7.20;100.00
7990;BME280;4040;42.848;23.034;2023-02-28T22:11:29;95469.47;;;7.19;100.00
7990;BME280;4040;42.848;23.034;2023-02-28T22:17:18;95468.38;;;7.20;100.00
7990;BME280;4040;42.848;23.034;2023-02-28T22:23:06;95465.72;;;7.23;100.00
7990;BME280;4040;42.848;23.034;2023-02-28T22:28:57;95465.19;;;7.14;100.00
7990;BME280;4040;42.848;23.034;2023-02-28T22:34:49;95463.66;;;7.13;100.00
7990;BME280;4040;42.848;23.034;2023-02-28T22:41:08;95468.63;;;7.11;100.00
7990;BME280;4040;42.848;23.034;2023-02-28T22:51:22;95466.06;;;6.92;100.00
7990;BME280;4040;42.848;23.034;2023-02-28T22:57:11;95472.94;;;6.90;100.00
7990;BME280;4040;42.848;23.034;2023-02-28T23:08:27;95470.09;;;6.79;100.00
7990;BME280;4040;42.848;23.034;2023-02-28T23:14:17;95467.13;;;6.88;100.00
7990;BME280;4040;42.848;23.034;2023-02-28T23:20:07;95463.28;;;6.85;100.00
7990;BME280;4040;42.848;23.034;2023-02-28T23:25:57;95449.13;;;6.85;100.00
7990;BME280;4040;42.848;23.034;2023-02-28T23:31:46;95445.00;;;6.65;100.00
7990;BME280;4040;42.848;23.034;2023-02-28T23:37:36;95407.63;;;6.42;100.00
7990;BME280;4040;42.848;23.034;2023-02-28T23:43:27;95419.66;;;6.55;100.00
7990;BME280;4040;42.848;23.034;2023-02-28T23:49:16;95418.00;;;6.47;100.00
7990;BME280;4040;42.848;23.034;2023-02-28T23:55:07;95400.06;;;6.51;100.00
